createdAt,value
2017-06-06T00:00:01.586Z,12.7
2017-06-06T00:05:02.120Z,12.9
2017-06-06T00:10:01.832Z,13.1
2017-06-06T00:15:01.710Z,13.1
2017-06-06T00:20:01.257Z,13.3
2017-06-06T00:25:01.224Z,13.3
2017-06-06T00:30:01.999Z,13.3
2017-06-06T00:35:01.305Z,13.7
2017-06-06T00:40:02.059Z,13.7
2017-06-06T00:45:01.888Z,13.8
2017-06-06T00:50:01.343Z,14
2017-06-06T00:55:02.101Z,14
2017-06-06T01:00:01.937Z,14
2017-06-06T01:05:01.557Z,14.1
2017-06-06T01:10:01.384Z,14.1
2017-06-06T01:15:01.625Z,14.1
2017-06-06T01:20:01.295Z,14.1
2017-06-06T01:25:02.129Z,14.1
2017-06-06T01:30:01.950Z,14.1
2017-06-06T01:35:01.376Z,14.1
2017-06-06T01:40:01.256Z,14
2017-06-06T01:45:02.101Z,14
2017-06-06T01:50:01.638Z,14
2017-06-06T01:55:01.483Z,14
2017-06-06T02:00:01.566Z,13.9
2017-06-06T02:05:01.192Z,13.9
2017-06-06T02:10:01.564Z,13.9
2017-06-06T02:15:01.790Z,13.8
2017-06-06T02:20:01.466Z,13.8
2017-06-06T02:25:01.369Z,13.8
2017-06-06T02:30:01.937Z,13.6
2017-06-06T02:35:01.642Z,13.6
2017-06-06T02:40:01.976Z,13.5
2017-06-06T02:45:02.075Z,13.5
2017-06-06T02:50:01.527Z,13.4
2017-06-06T02:55:01.288Z,13.4
2017-06-06T03:00:01.364Z,13.3
2017-06-06T03:05:01.375Z,13.3
2017-06-06T03:10:01.228Z,13.2
2017-06-06T03:15:01.304Z,13.2
2017-06-06T03:20:01.277Z,13.2
2017-06-06T03:25:01.341Z,13.1
2017-06-06T03:30:01.440Z,13.1
2017-06-06T03:35:01.737Z,13.2
2017-06-06T03:40:02.022Z,13.2
2017-06-06T03:45:01.555Z,13.2
2017-06-06T03:50:01.856Z,13.1
2017-06-06T03:55:02.161Z,13.2
2017-06-06T04:00:01.260Z,13.2
2017-06-06T04:05:01.613Z,13.2
2017-06-06T04:10:01.448Z,13.3
2017-06-06T04:15:01.876Z,13.4
2017-06-06T04:20:01.734Z,13.5
2017-06-06T04:25:01.960Z,13.6
2017-06-06T04:30:01.218Z,13.8
2017-06-06T04:35:01.805Z,13.8
2017-06-06T04:40:01.537Z,13.9
2017-06-06T04:45:01.310Z,14
2017-06-06T04:50:02.064Z,14.2
2017-06-06T04:55:01.991Z,14.2
2017-06-06T05:00:01.394Z,14.4
2017-06-06T05:05:01.972Z,14.6
2017-06-06T05:10:01.873Z,14.6
2017-06-06T05:15:01.234Z,15
2017-06-06T05:20:01.346Z,15
2017-06-06T05:25:01.646Z,15
2017-06-06T05:30:01.638Z,15
2017-06-06T05:35:01.384Z,15
2017-06-06T05:40:02.110Z,15
2017-06-06T05:45:02.030Z,15
2017-06-06T05:50:01.882Z,15.4
2017-06-06T05:55:01.835Z,15.5
2017-06-06T06:00:01.345Z,15.5
2017-06-06T06:05:01.781Z,15.8
2017-06-06T06:10:01.621Z,15.8
2017-06-06T06:15:01.197Z,16
2017-06-06T06:20:01.966Z,16
2017-06-06T06:25:02.110Z,16.2
2017-06-06T06:30:01.446Z,16.2
2017-06-06T06:35:01.791Z,16.6
2017-06-06T06:40:01.990Z,16.6
2017-06-06T06:45:01.765Z,16.8
2017-06-06T06:50:01.741Z,16.9
2017-06-06T06:55:02.166Z,17
2017-06-06T07:00:01.993Z,17.3
2017-06-06T07:05:01.945Z,17.3
2017-06-06T07:10:01.712Z,17.3
2017-06-06T07:15:01.195Z,17.3
2017-06-06T07:20:01.283Z,17.3
2017-06-06T07:25:01.491Z,17.3
2017-06-06T07:30:01.266Z,18.1
2017-06-06T07:35:01.599Z,18.3
2017-06-06T07:40:01.419Z,18.4
2017-06-06T07:45:02.215Z,18.6
2017-06-06T07:50:01.622Z,18.8
2017-06-06T07:55:01.521Z,18.8
2017-06-06T08:00:01.988Z,19.2
2017-06-06T08:05:01.893Z,19.5
2017-06-06T08:10:01.858Z,19.6
2017-06-06T08:15:01.250Z,19.8
2017-06-06T08:20:01.803Z,19.8
2017-06-06T08:25:01.839Z,19.8
2017-06-06T08:30:01.399Z,19.8
2017-06-06T08:35:01.941Z,20.3
2017-06-06T08:40:01.814Z,20.3
2017-06-06T08:45:01.575Z,20.5
2017-06-06T08:50:01.237Z,20.6
2017-06-06T08:55:01.984Z,20.6
2017-06-06T09:00:01.815Z,20.8
2017-06-06T09:05:01.839Z,20.8
2017-06-06T09:10:01.885Z,21
2017-06-06T09:15:01.525Z,21
2017-06-06T09:20:01.476Z,21.4
2017-06-06T09:25:01.458Z,21.6
2017-06-06T09:30:01.794Z,21.8
2017-06-06T09:35:01.503Z,21.8
2017-06-06T09:40:01.255Z,21.8
2017-06-06T09:45:02.164Z,22
2017-06-06T09:50:01.937Z,22
2017-06-06T09:55:01.694Z,22.2
2017-06-06T10:00:02.086Z,22.5
2017-06-06T10:05:02.065Z,22.6
2017-06-06T10:10:02.031Z,22.6
2017-06-06T10:15:01.442Z,22.8
2017-06-06T10:20:02.122Z,22.8
2017-06-06T10:25:02.143Z,22.8
2017-06-06T10:30:01.563Z,22.8
2017-06-06T10:35:01.506Z,22.9
2017-06-06T10:40:01.301Z,22.9
2017-06-06T10:45:02.147Z,23
2017-06-06T10:50:02.036Z,23
2017-06-06T10:55:01.405Z,23
2017-06-06T11:00:01.658Z,23.1
2017-06-06T11:05:01.269Z,23
2017-06-06T11:10:01.244Z,23
2017-06-06T11:15:01.557Z,22.8
2017-06-06T11:20:02.124Z,22.8
2017-06-06T11:25:01.903Z,22.8
2017-06-06T11:30:01.299Z,22.8
2017-06-06T11:35:01.580Z,22.6
2017-06-06T11:40:01.807Z,22.7
2017-06-06T11:45:01.433Z,22.8
2017-06-06T11:50:01.238Z,22.8
2017-06-06T11:55:01.417Z,22.9
2017-06-06T12:00:01.764Z,22.9
2017-06-06T12:05:02.036Z,22.9
2017-06-06T12:10:01.980Z,23
2017-06-06T12:15:02.104Z,23
2017-06-06T12:20:01.435Z,22.9
2017-06-06T12:25:01.921Z,22.9
2017-06-06T12:30:01.352Z,22.9
2017-06-06T12:35:01.299Z,22.9
2017-06-06T12:40:01.928Z,23
2017-06-06T12:45:01.784Z,23.1
2017-06-06T12:50:01.371Z,23.1
2017-06-06T12:55:01.463Z,23.1
2017-06-06T13:00:01.174Z,23
2017-06-06T13:05:01.354Z,23
2017-06-06T13:10:02.014Z,23.2
2017-06-06T13:15:01.460Z,23.2
2017-06-06T13:20:01.760Z,23.2
2017-06-06T13:25:02.136Z,23.3
2017-06-06T13:30:01.887Z,23.4
2017-06-06T13:35:01.965Z,23.5
2017-06-06T13:40:01.359Z,23.6
2017-06-06T13:45:01.432Z,23.7
2017-06-06T13:50:01.285Z,23.6
2017-06-06T13:55:01.576Z,23.6
2017-06-06T14:00:02.021Z,23.6
2017-06-06T14:05:01.791Z,23.8
2017-06-06T14:10:01.709Z,23.8
2017-06-06T14:15:01.484Z,23.8
2017-06-06T14:20:01.715Z,23.8
2017-06-06T14:25:01.866Z,24
2017-06-06T14:30:01.909Z,24
2017-06-06T14:35:01.787Z,23.8
2017-06-06T14:40:01.407Z,23.8
2017-06-06T14:45:01.335Z,23.7
2017-06-06T14:50:02.029Z,23.6
2017-06-06T14:55:02.229Z,23.5
2017-06-06T15:00:01.757Z,23.4
2017-06-06T15:05:01.728Z,23.4
2017-06-06T15:10:01.613Z,23.1
2017-06-06T15:15:01.492Z,23
2017-06-06T15:20:01.879Z,22.6
2017-06-06T15:25:01.410Z,22.4
2017-06-06T15:30:01.778Z,22
2017-06-06T15:35:01.233Z,22
2017-06-06T15:40:01.228Z,21.2
2017-06-06T15:45:01.455Z,20.8
2017-06-06T15:50:02.066Z,20.6
2017-06-06T15:55:01.194Z,20.4
2017-06-06T16:00:01.675Z,19.9
2017-06-06T16:05:02.013Z,19.8
2017-06-06T16:10:01.935Z,19.7
2017-06-06T16:15:02.108Z,19.4
2017-06-06T16:20:01.849Z,19.4
2017-06-06T16:25:02.189Z,19.3
2017-06-06T16:30:01.641Z,19.2
2017-06-06T16:35:02.039Z,19.2
2017-06-06T16:40:01.508Z,19.1
2017-06-06T16:45:01.852Z,19.2
2017-06-06T16:50:02.121Z,18.9
2017-06-06T16:55:01.736Z,18.9
2017-06-06T17:00:01.588Z,18.6
2017-06-06T17:05:01.803Z,18.4
2017-06-06T17:10:01.504Z,18.2
2017-06-06T17:15:01.623Z,18
2017-06-06T17:20:01.902Z,17.5
2017-06-06T17:25:02.088Z,17.2
2017-06-06T17:30:01.558Z,17.2
2017-06-06T17:35:02.134Z,16.9
2017-06-06T17:40:01.689Z,16.6
2017-06-06T17:45:01.892Z,16.4
2017-06-06T17:50:01.316Z,16.3
2017-06-06T17:55:02.070Z,16.3
2017-06-06T18:00:01.599Z,16.3
2017-06-06T18:05:01.826Z,16
2017-06-06T18:10:01.751Z,16
2017-06-06T18:15:01.189Z,15.9
2017-06-06T18:20:01.232Z,15.8
2017-06-06T18:25:01.439Z,15.8
2017-06-06T18:30:01.865Z,15.7
2017-06-06T18:35:01.882Z,15.7
2017-06-06T18:40:01.686Z,15.6
2017-06-06T18:45:01.440Z,15.6
2017-06-06T18:50:01.437Z,15.6
2017-06-06T18:55:02.107Z,15.5
2017-06-06T19:00:01.399Z,15.4
2017-06-06T19:05:02.086Z,15.4
2017-06-06T19:10:01.289Z,15.4
2017-06-06T19:15:02.011Z,15.3
2017-06-06T19:20:01.391Z,15.2
2017-06-06T19:25:01.685Z,15.2
2017-06-06T19:30:01.432Z,15
2017-06-06T19:35:01.312Z,15
2017-06-06T19:40:01.290Z,15
2017-06-06T19:45:01.872Z,15
2017-06-06T19:50:01.710Z,15
2017-06-06T19:55:11.735Z,15
2017-06-06T20:00:01.268Z,15
2017-06-06T20:05:01.339Z,15
2017-06-06T20:10:02.069Z,15
2017-06-06T20:15:01.671Z,15
2017-06-06T20:20:01.903Z,15
2017-06-06T20:25:01.382Z,15
2017-06-06T20:30:01.735Z,15
2017-06-06T20:35:01.225Z,15
2017-06-06T20:40:01.317Z,15
2017-06-06T20:45:01.766Z,15
2017-06-06T20:50:01.832Z,15
2017-06-06T20:55:01.851Z,15
2017-06-06T21:00:01.213Z,15
2017-06-06T21:05:01.459Z,15
2017-06-06T21:10:01.259Z,15
2017-06-06T21:15:02.146Z,15
2017-06-06T21:20:01.525Z,15
2017-06-06T21:25:01.921Z,15
2017-06-06T21:30:01.383Z,15
2017-06-06T21:35:02.156Z,15
2017-06-06T21:40:02.262Z,15
2017-06-06T21:45:01.404Z,15
2017-06-06T21:50:01.870Z,15
2017-06-06T21:55:01.637Z,15
2017-06-06T22:00:02.040Z,15
2017-06-06T22:05:01.340Z,15
2017-06-06T22:10:02.016Z,15
2017-06-06T22:15:01.241Z,15
2017-06-06T22:20:02.111Z,15
2017-06-06T22:25:01.820Z,15
2017-06-06T22:30:01.314Z,15
2017-06-06T22:35:01.615Z,14.8
2017-06-06T22:40:01.313Z,14.8
2017-06-06T22:45:01.390Z,14.7
2017-06-06T22:50:01.906Z,14.7
2017-06-06T22:55:01.689Z,14.7
2017-06-06T23:00:01.959Z,14.7
2017-06-06T23:05:01.508Z,14.6
2017-06-06T23:10:01.312Z,14.7
2017-06-06T23:15:02.184Z,14.6
2017-06-06T23:20:01.625Z,14.6
2017-06-06T23:25:01.381Z,14.6
2017-06-06T23:30:01.279Z,14.5
2017-06-06T23:35:01.696Z,14.5
2017-06-06T23:40:01.580Z,14.4
2017-06-06T23:45:02.004Z,14.4
2017-06-06T23:50:02.165Z,14.4
2017-06-06T23:55:01.847Z,14.3
